sensor_id;sensor_type;location;lat;lon;timestamp;P1;durP1;ratioP1;P2;durP2;ratioP2
59649;SDS011;46162;57.568;25.814;2023-05-10T00:01:03;10.52;;;2.45;;
59649;SDS011;46162;57.568;25.814;2023-05-10T00:03:32;16.38;;;2.75;;
59649;SDS011;46162;57.568;25.814;2023-05-10T00:06:00;12.50;;;3.00;;
59649;SDS011;46162;57.568;25.814;2023-05-10T00:08:30;10.82;;;2.50;;
59649;SDS011;46162;57.568;25.814;2023-05-10T00:10:59;13.20;;;2.60;;
59649;SDS011;46162;57.568;25.814;2023-05-10T00:13:28;10.45;;;2.70;;
59649;SDS011;46162;57.568;25.814;2023-05-10T00:15:56;11.27;;;1.98;;
59649;SDS011;46162;57.568;25.814;2023-05-10T00:18:25;11.52;;;2.58;;
59649;SDS011;46162;57.568;25.814;2023-05-10T00:20:54;9.13;;;2.65;;
59649;SDS011;46162;57.568;25.814;2023-05-10T00:23:22;10.77;;;3.35;;
59649;SDS011;46162;57.568;25.814;2023-05-10T00:25:52;11.38;;;3.92;;
59649;SDS011;46162;57.568;25.814;2023-05-10T00:28:21;18.45;;;4.68;;
59649;SDS011;46162;57.568;25.814;2023-05-10T00:30:50;19.60;;;4.65;;
59649;SDS011;46162;57.568;25.814;2023-05-10T00:33:18;25.30;;;4.82;;
59649;SDS011;46162;57.568;25.814;2023-05-10T00:35:47;20.25;;;4.68;;
59649;SDS011;46162;57.568;25.814;2023-05-10T00:38:15;14.30;;;2.97;;
59649;SDS011;46162;57.568;25.814;2023-05-10T00:40:44;14.55;;;4.15;;
59649;SDS011;46162;57.568;25.814;2023-05-10T00:43:22;16.63;;;3.80;;
59649;SDS011;46162;57.568;25.814;2023-05-10T00:45:50;29.20;;;4.55;;
59649;SDS011;46162;57.568;25.814;2023-05-10T00:48:20;18.88;;;4.82;;
59649;SDS011;46162;57.568;25.814;2023-05-10T00:50:49;13.70;;;4.35;;
59649;SDS011;46162;57.568;25.814;2023-05-10T00:53:18;24.45;;;4.15;;
59649;SDS011;46162;57.568;25.814;2023-05-10T00:55:47;11.63;;;3.13;;
59649;SDS011;46162;57.568;25.814;2023-05-10T00:58:15;13.77;;;3.08;;
59649;SDS011;46162;57.568;25.814;2023-05-10T01:00:46;17.80;;;3.05;;
59649;SDS011;46162;57.568;25.814;2023-05-10T01:03:15;9.40;;;2.50;;
59649;SDS011;46162;57.568;25.814;2023-05-10T01:05:44;12.70;;;2.50;;
59649;SDS011;46162;57.568;25.814;2023-05-10T01:08:12;9.15;;;2.38;;
59649;SDS011;46162;57.568;25.814;2023-05-10T01:10:41;12.63;;;1.90;;
59649;SDS011;46162;57.568;25.814;2023-05-10T01:13:10;5.72;;;1.85;;
59649;SDS011;46162;57.568;25.814;2023-05-10T01:15:43;11.00;;;2.33;;
59649;SDS011;46162;57.568;25.814;2023-05-10T01:18:14;6.88;;;1.92;;
59649;SDS011;46162;57.568;25.814;2023-05-10T01:20:45;9.00;;;2.30;;
59649;SDS011;46162;57.568;25.814;2023-05-10T01:23:25;8.30;;;2.20;;
59649;SDS011;46162;57.568;25.814;2023-05-10T01:32:15;10.10;;;2.20;;
59649;SDS011;46162;57.568;25.814;2023-05-10T01:34:52;8.07;;;2.08;;
59649;SDS011;46162;57.568;25.814;2023-05-10T01:37:29;9.90;;;2.90;;
59649;SDS011;46162;57.568;25.814;2023-05-10T01:40:08;12.52;;;3.03;;
59649;SDS011;46162;57.568;25.814;2023-05-10T01:42:46;9.32;;;2.70;;
59649;SDS011;46162;57.568;25.814;2023-05-10T01:45:20;9.52;;;2.75;;
59649;SDS011;46162;57.568;25.814;2023-05-10T01:48:01;13.10;;;3.20;;
59649;SDS011;46162;57.568;25.814;2023-05-10T01:50:35;11.98;;;3.78;;
59649;SDS011;46162;57.568;25.814;2023-05-10T01:55:35;10.07;;;3.47;;
59649;SDS011;46162;57.568;25.814;2023-05-10T01:58:13;7.85;;;3.33;;
59649;SDS011;46162;57.568;25.814;2023-05-10T02:00:45;10.32;;;4.00;;
59649;SDS011;46162;57.568;25.814;2023-05-10T02:03:16;10.30;;;3.83;;
59649;SDS011;46162;57.568;25.814;2023-05-10T02:05:48;14.60;;;4.40;;
59649;SDS011;46162;57.568;25.814;2023-05-10T02:08:20;11.27;;;3.78;;
59649;SDS011;46162;57.568;25.814;2023-05-10T02:10:51;12.30;;;3.53;;
59649;SDS011;46162;57.568;25.814;2023-05-10T02:13:22;10.23;;;4.07;;
59649;SDS011;46162;57.568;25.814;2023-05-10T02:15:52;16.33;;;4.30;;
59649;SDS011;46162;57.568;25.814;2023-05-10T02:18:24;12.23;;;3.38;;
59649;SDS011;46162;57.568;25.814;2023-05-10T02:20:54;14.05;;;3.58;;
59649;SDS011;46162;57.568;25.814;2023-05-10T02:23:24;10.73;;;3.30;;
59649;SDS011;46162;57.568;25.814;2023-05-10T02:25:55;11.50;;;3.67;;
59649;SDS011;46162;57.568;25.814;2023-05-10T02:28:25;20.17;;;4.32;;
59649;SDS011;46162;57.568;25.814;2023-05-10T02:30:54;14.43;;;4.43;;
59649;SDS011;46162;57.568;25.814;2023-05-10T02:33:25;14.50;;;3.90;;
59649;SDS011;46162;57.568;25.814;2023-05-10T02:35:55;19.15;;;4.95;;
59649;SDS011;46162;57.568;25.814;2023-05-10T02:38:25;10.57;;;4.10;;
59649;SDS011;46162;57.568;25.814;2023-05-10T02:40:55;12.98;;;4.38;;
59649;SDS011;46162;57.568;25.814;2023-05-10T02:43:26;16.47;;;4.23;;
59649;SDS011;46162;57.568;25.814;2023-05-10T02:45:58;14.68;;;4.63;;
59649;SDS011;46162;57.568;25.814;2023-05-10T02:48:28;12.40;;;4.35;;
59649;SDS011;46162;57.568;25.814;2023-05-10T02:50:59;11.10;;;4.50;;
59649;SDS011;46162;57.568;25.814;2023-05-10T02:53:33;17.45;;;4.50;;
59649;SDS011;46162;57.568;25.814;2023-05-10T02:56:08;18.83;;;5.70;;
59649;SDS011;46162;57.568;25.814;2023-05-10T02:58:40;11.57;;;4.85;;
59649;SDS011;46162;57.568;25.814;2023-05-10T03:01:09;14.80;;;5.22;;
59649;SDS011;46162;57.568;25.814;2023-05-10T03:03:39;15.18;;;4.43;;
59649;SDS011;46162;57.568;25.814;2023-05-10T03:06:08;12.85;;;5.28;;
59649;SDS011;46162;57.568;25.814;2023-05-10T03:08:37;9.43;;;4.57;;
59649;SDS011;46162;57.568;25.814;2023-05-10T03:11:16;12.68;;;5.05;;
59649;SDS011;46162;57.568;25.814;2023-05-10T03:14:10;15.35;;;5.53;;
59649;SDS011;46162;57.568;25.814;2023-05-10T03:16:47;11.93;;;5.18;;
59649;SDS011;46162;57.568;25.814;2023-05-10T03:19:26;11.52;;;4.88;;
59649;SDS011;46162;57.568;25.814;2023-05-10T03:21:59;15.23;;;5.28;;
59649;SDS011;46162;57.568;25.814;2023-05-10T03:24:34;14.57;;;5.53;;
59649;SDS011;46162;57.568;25.814;2023-05-10T03:27:04;14.95;;;5.47;;
59649;SDS011;46162;57.568;25.814;2023-05-10T03:29:35;15.63;;;5.15;;
59649;SDS011;46162;57.568;25.814;2023-05-10T03:32:06;15.40;;;4.97;;
59649;SDS011;46162;57.568;25.814;2023-05-10T03:34:36;12.20;;;4.97;;
59649;SDS011;46162;57.568;25.814;2023-05-10T03:37:10;13.23;;;4.53;;
59649;SDS011;46162;57.568;25.814;2023-05-10T03:39:39;16.65;;;5.82;;
59649;SDS011;46162;57.568;25.814;2023-05-10T03:42:09;16.80;;;4.95;;
59649;SDS011;46162;57.568;25.814;2023-05-10T03:44:39;14.45;;;5.18;;
59649;SDS011;46162;57.568;25.814;2023-05-10T03:47:08;13.00;;;5.28;;
59649;SDS011;46162;57.568;25.814;2023-05-10T03:49:38;14.25;;;4.93;;
59649;SDS011;46162;57.568;25.814;2023-05-10T03:52:07;11.73;;;4.40;;
59649;SDS011;46162;57.568;25.814;2023-05-10T03:54:35;12.38;;;4.25;;
59649;SDS011;46162;57.568;25.814;2023-05-10T03:57:04;9.55;;;4.18;;
59649;SDS011;46162;57.568;25.814;2023-05-10T03:59:33;11.32;;;4.10;;
59649;SDS011;46162;57.568;25.814;2023-05-10T04:02:02;12.63;;;4.43;;
59649;SDS011;46162;57.568;25.814;2023-05-10T04:04:30;13.15;;;5.40;;
59649;SDS011;46162;57.568;25.814;2023-05-10T04:07:01;10.38;;;3.72;;
59649;SDS011;46162;57.568;25.814;2023-05-10T04:09:29;10.20;;;3.75;;
59649;SDS011;46162;57.568;25.814;2023-05-10T04:11:58;11.98;;;4.20;;
59649;SDS011;46162;57.568;25.814;2023-05-10T04:14:27;13.48;;;4.00;;
59649;SDS011;46162;57.568;25.814;2023-05-10T04:16:55;13.80;;;4.78;;
59649;SDS011;46162;57.568;25.814;2023-05-10T04:19:28;19.13;;;5.15;;
59649;SDS011;46162;57.568;25.814;2023-05-10T04:21:57;10.65;;;4.13;;
59649;SDS011;46162;57.568;25.814;2023-05-10T04:24:27;12.27;;;4.93;;
59649;SDS011;46162;57.568;25.814;2023-05-10T04:26:56;16.02;;;4.72;;
59649;SDS011;46162;57.568;25.814;2023-05-10T04:29:27;11.05;;;4.05;;
59649;SDS011;46162;57.568;25.814;2023-05-10T04:31:55;12.68;;;3.67;;
59649;SDS011;46162;57.568;25.814;2023-05-10T04:34:24;10.40;;;3.97;;
59649;SDS011;46162;57.568;25.814;2023-05-10T04:36:53;10.23;;;4.15;;
59649;SDS011;46162;57.568;25.814;2023-05-10T04:39:21;9.20;;;3.95;;
59649;SDS011;46162;57.568;25.814;2023-05-10T04:41:52;11.65;;;3.92;;
59649;SDS011;46162;57.568;25.814;2023-05-10T04:44:20;13.90;;;3.92;;
59649;SDS011;46162;57.568;25.814;2023-05-10T04:46:49;14.38;;;3.70;;
59649;SDS011;46162;57.568;25.814;2023-05-10T04:49:17;12.60;;;3.85;;
59649;SDS011;46162;57.568;25.814;2023-05-10T04:51:46;8.25;;;4.28;;
59649;SDS011;46162;57.568;25.814;2023-05-10T04:54:15;15.43;;;4.65;;
59649;SDS011;46162;57.568;25.814;2023-05-10T04:56:43;15.52;;;4.38;;
59649;SDS011;46162;57.568;25.814;2023-05-10T04:59:14;14.02;;;4.65;;
59649;SDS011;46162;57.568;25.814;2023-05-10T05:01:42;12.55;;;4.40;;
59649;SDS011;46162;57.568;25.814;2023-05-10T05:04:11;19.00;;;4.20;;
59649;SDS011;46162;57.568;25.814;2023-05-10T05:06:41;11.60;;;4.30;;
59649;SDS011;46162;57.568;25.814;2023-05-10T05:09:10;10.98;;;3.58;;
59649;SDS011;46162;57.568;25.814;2023-05-10T05:11:38;10.90;;;3.85;;
59649;SDS011;46162;57.568;25.814;2023-05-10T05:14:07;8.18;;;3.28;;
59649;SDS011;46162;57.568;25.814;2023-05-10T05:16:37;8.13;;;3.03;;
59649;SDS011;46162;57.568;25.814;2023-05-10T05:19:05;6.47;;;2.70;;
59649;SDS011;46162;57.568;25.814;2023-05-10T05:21:34;9.52;;;2.90;;
59649;SDS011;46162;57.568;25.814;2023-05-10T05:24:03;12.73;;;2.88;;
59649;SDS011;46162;57.568;25.814;2023-05-10T05:26:33;8.75;;;2.63;;
59649;SDS011;46162;57.568;25.814;2023-05-10T05:29:01;9.65;;;2.50;;
59649;SDS011;46162;57.568;25.814;2023-05-10T05:31:30;11.52;;;2.28;;
59649;SDS011;46162;57.568;25.814;2023-05-10T05:34:00;11.07;;;2.60;;
59649;SDS011;46162;57.568;25.814;2023-05-10T05:36:29;16.97;;;3.13;;
59649;SDS011;46162;57.568;25.814;2023-05-10T05:38:57;9.57;;;2.35;;
59649;SDS011;46162;57.568;25.814;2023-05-10T05:41:26;9.82;;;2.25;;
59649;SDS011;46162;57.568;25.814;2023-05-10T05:43:55;10.73;;;3.20;;
59649;SDS011;46162;57.568;25.814;2023-05-10T05:46:23;21.60;;;3.08;;
59649;SDS011;46162;57.568;25.814;2023-05-10T05:48:52;15.93;;;3.08;;
59649;SDS011;46162;57.568;25.814;2023-05-10T05:51:22;25.80;;;3.30;;
59649;SDS011;46162;57.568;25.814;2023-05-10T05:53:51;29.33;;;3.23;;
59649;SDS011;46162;57.568;25.814;2023-05-10T05:56:19;19.52;;;2.95;;
59649;SDS011;46162;57.568;25.814;2023-05-10T05:58:51;23.95;;;2.80;;
59649;SDS011;46162;57.568;25.814;2023-05-10T06:01:20;23.45;;;3.10;;
59649;SDS011;46162;57.568;25.814;2023-05-10T06:03:49;31.75;;;2.50;;
59649;SDS011;46162;57.568;25.814;2023-05-10T06:06:19;20.57;;;2.00;;
59649;SDS011;46162;57.568;25.814;2023-05-10T06:08:49;19.48;;;2.53;;
59649;SDS011;46162;57.568;25.814;2023-05-10T06:11:18;21.58;;;2.60;;
59649;SDS011;46162;57.568;25.814;2023-05-10T06:13:47;14.02;;;2.22;;
59649;SDS011;46162;57.568;25.814;2023-05-10T06:16:16;22.40;;;2.28;;
59649;SDS011;46162;57.568;25.814;2023-05-10T06:18:44;22.35;;;1.95;;
59649;SDS011;46162;57.568;25.814;2023-05-10T06:21:13;19.75;;;2.50;;
59649;SDS011;46162;57.568;25.814;2023-05-10T06:23:41;26.15;;;2.63;;
59649;SDS011;46162;57.568;25.814;2023-05-10T06:26:12;23.13;;;2.42;;
59649;SDS011;46162;57.568;25.814;2023-05-10T06:28:40;26.60;;;2.83;;
59649;SDS011;46162;57.568;25.814;2023-05-10T06:31:09;23.38;;;2.90;;
59649;SDS011;46162;57.568;25.814;2023-05-10T06:33:38;27.85;;;2.83;;
59649;SDS011;46162;57.568;25.814;2023-05-10T06:36:07;28.90;;;2.78;;
59649;SDS011;46162;57.568;25.814;2023-05-10T06:38:36;24.70;;;2.40;;
59649;SDS011;46162;57.568;25.814;2023-05-10T06:41:04;30.25;;;3.83;;
59649;SDS011;46162;57.568;25.814;2023-05-10T06:43:34;32.30;;;3.35;;
59649;SDS011;46162;57.568;25.814;2023-05-10T06:46:06;27.67;;;2.97;;
59649;SDS011;46162;57.568;25.814;2023-05-10T06:48:35;25.90;;;2.67;;
59649;SDS011;46162;57.568;25.814;2023-05-10T06:51:04;29.98;;;2.92;;
59649;SDS011;46162;57.568;25.814;2023-05-10T06:53:32;23.17;;;2.15;;
59649;SDS011;46162;57.568;25.814;2023-05-10T06:56:01;26.17;;;2.75;;
59649;SDS011;46162;57.568;25.814;2023-05-10T06:58:30;12.30;;;2.05;;
59649;SDS011;46162;57.568;25.814;2023-05-10T07:01:04;26.70;;;2.45;;
59649;SDS011;46162;57.568;25.814;2023-05-10T07:03:33;22.45;;;2.53;;
59649;SDS011;46162;57.568;25.814;2023-05-10T07:06:02;19.05;;;2.65;;
59649;SDS011;46162;57.568;25.814;2023-05-10T07:08:31;14.75;;;2.40;;
59649;SDS011;46162;57.568;25.814;2023-05-10T07:11:00;36.45;;;2.45;;
59649;SDS011;46162;57.568;25.814;2023-05-10T07:13:30;16.40;;;2.08;;
59649;SDS011;46162;57.568;25.814;2023-05-10T07:15:59;24.23;;;1.65;;
59649;SDS011;46162;57.568;25.814;2023-05-10T07:18:30;27.58;;;1.98;;
59649;SDS011;46162;57.568;25.814;2023-05-10T07:20:59;18.92;;;2.33;;
59649;SDS011;46162;57.568;25.814;2023-05-10T07:23:28;21.77;;;1.95;;
59649;SDS011;46162;57.568;25.814;2023-05-10T07:25:57;15.00;;;1.70;;
59649;SDS011;46162;57.568;25.814;2023-05-10T07:28:26;10.80;;;1.88;;
59649;SDS011;46162;57.568;25.814;2023-05-10T07:30:55;25.95;;;1.85;;
59649;SDS011;46162;57.568;25.814;2023-05-10T07:33:23;14.35;;;1.20;;
59649;SDS011;46162;57.568;25.814;2023-05-10T07:35:53;11.77;;;1.60;;
59649;SDS011;46162;57.568;25.814;2023-05-10T07:38:22;12.55;;;1.40;;
59649;SDS011;46162;57.568;25.814;2023-05-10T07:40:51;6.38;;;0.90;;
59649;SDS011;46162;57.568;25.814;2023-05-10T07:43:19;20.02;;;1.42;;
59649;SDS011;46162;57.568;25.814;2023-05-10T07:45:48;30.30;;;1.90;;
59649;SDS011;46162;57.568;25.814;2023-05-10T07:48:19;7.97;;;0.93;;
59649;SDS011;46162;57.568;25.814;2023-05-10T07:50:48;15.52;;;0.82;;
59649;SDS011;46162;57.568;25.814;2023-05-10T07:53:18;10.40;;;1.05;;
59649;SDS011;46162;57.568;25.814;2023-05-10T07:55:49;18.58;;;1.88;;
59649;SDS011;46162;57.568;25.814;2023-05-10T07:58:19;19.90;;;1.40;;
59649;SDS011;46162;57.568;25.814;2023-05-10T08:00:47;21.45;;;1.20;;
59649;SDS011;46162;57.568;25.814;2023-05-10T08:03:16;6.13;;;1.00;;
59649;SDS011;46162;57.568;25.814;2023-05-10T08:05:45;11.63;;;1.50;;
59649;SDS011;46162;57.568;25.814;2023-05-10T08:08:14;6.68;;;1.13;;
59649;SDS011;46162;57.568;25.814;2023-05-10T08:10:44;6.63;;;1.20;;
59649;SDS011;46162;57.568;25.814;2023-05-10T08:13:13;8.35;;;0.98;;
59649;SDS011;46162;57.568;25.814;2023-05-10T08:15:42;7.47;;;1.00;;
59649;SDS011;46162;57.568;25.814;2023-05-10T08:18:10;7.10;;;0.80;;
59649;SDS011;46162;57.568;25.814;2023-05-10T08:20:39;10.05;;;1.15;;
59649;SDS011;46162;57.568;25.814;2023-05-10T08:23:08;7.95;;;0.90;;
59649;SDS011;46162;57.568;25.814;2023-05-10T08:25:36;11.15;;;0.98;;
59649;SDS011;46162;57.568;25.814;2023-05-10T08:28:07;10.55;;;0.73;;
59649;SDS011;46162;57.568;25.814;2023-05-10T08:30:37;8.85;;;0.75;;
59649;SDS011;46162;57.568;25.814;2023-05-10T08:33:06;5.35;;;0.63;;
59649;SDS011;46162;57.568;25.814;2023-05-10T08:35:34;8.75;;;0.90;;
59649;SDS011;46162;57.568;25.814;2023-05-10T08:38:03;10.00;;;0.77;;
59649;SDS011;46162;57.568;25.814;2023-05-10T08:40:32;8.20;;;1.10;;
59649;SDS011;46162;57.568;25.814;2023-05-10T08:43:04;9.50;;;0.70;;
59649;SDS011;46162;57.568;25.814;2023-05-10T08:45:37;14.50;;;0.90;;
59649;SDS011;46162;57.568;25.814;2023-05-10T08:48:07;5.93;;;0.73;;
59649;SDS011;46162;57.568;25.814;2023-05-10T08:50:37;7.95;;;1.17;;
59649;SDS011;46162;57.568;25.814;2023-05-10T08:53:09;8.00;;;1.00;;
59649;SDS011;46162;57.568;25.814;2023-05-10T08:55:39;8.52;;;0.73;;
59649;SDS011;46162;57.568;25.814;2023-05-10T08:58:09;5.95;;;0.95;;
59649;SDS011;46162;57.568;25.814;2023-05-10T09:00:39;4.53;;;0.80;;
59649;SDS011;46162;57.568;25.814;2023-05-10T09:03:08;11.88;;;0.80;;
59649;SDS011;46162;57.568;25.814;2023-05-10T09:05:37;5.47;;;1.08;;
59649;SDS011;46162;57.568;25.814;2023-05-10T09:08:06;7.20;;;1.23;;
59649;SDS011;46162;57.568;25.814;2023-05-10T09:10:36;6.07;;;0.70;;
59649;SDS011;46162;57.568;25.814;2023-05-10T09:13:06;14.55;;;1.23;;
59649;SDS011;46162;57.568;25.814;2023-05-10T09:15:37;8.25;;;1.00;;
59649;SDS011;46162;57.568;25.814;2023-05-10T09:18:07;7.00;;;0.80;;
59649;SDS011;46162;57.568;25.814;2023-05-10T09:20:35;9.77;;;0.80;;
59649;SDS011;46162;57.568;25.814;2023-05-10T09:23:04;7.90;;;0.95;;
59649;SDS011;46162;57.568;25.814;2023-05-10T09:25:33;7.07;;;1.02;;
59649;SDS011;46162;57.568;25.814;2023-05-10T09:28:02;6.75;;;0.98;;
59649;SDS011;46162;57.568;25.814;2023-05-10T09:30:35;9.20;;;0.90;;
59649;SDS011;46162;57.568;25.814;2023-05-10T09:33:04;5.18;;;1.02;;
59649;SDS011;46162;57.568;25.814;2023-05-10T09:35:34;3.78;;;0.70;;
59649;SDS011;46162;57.568;25.814;2023-05-10T09:38:03;9.18;;;1.00;;
59649;SDS011;46162;57.568;25.814;2023-05-10T09:40:33;6.17;;;0.83;;
59649;SDS011;46162;57.568;25.814;2023-05-10T09:43:02;7.88;;;1.00;;
59649;SDS011;46162;57.568;25.814;2023-05-10T09:45:33;13.27;;;1.35;;
59649;SDS011;46162;57.568;25.814;2023-05-10T09:48:05;14.93;;;1.10;;
59649;SDS011;46162;57.568;25.814;2023-05-10T09:50:35;9.40;;;1.15;;
59649;SDS011;46162;57.568;25.814;2023-05-10T09:53:04;8.50;;;0.70;;
59649;SDS011;46162;57.568;25.814;2023-05-10T09:55:39;8.98;;;0.90;;
59649;SDS011;46162;57.568;25.814;2023-05-10T09:58:11;7.85;;;1.10;;
59649;SDS011;46162;57.568;25.814;2023-05-10T10:00:42;7.57;;;0.70;;
59649;SDS011;46162;57.568;25.814;2023-05-10T10:05:42;10.65;;;1.13;;
59649;SDS011;46162;57.568;25.814;2023-05-10T10:08:12;9.05;;;0.75;;
59649;SDS011;46162;57.568;25.814;2023-05-10T10:10:41;9.30;;;0.65;;
59649;SDS011;46162;57.568;25.814;2023-05-10T10:13:12;11.45;;;0.88;;
59649;SDS011;46162;57.568;25.814;2023-05-10T10:15:41;5.85;;;0.73;;
59649;SDS011;46162;57.568;25.814;2023-05-10T10:18:13;7.82;;;0.80;;
59649;SDS011;46162;57.568;25.814;2023-05-10T10:20:44;10.43;;;1.15;;
59649;SDS011;46162;57.568;25.814;2023-05-10T10:23:13;9.82;;;0.85;;
59649;SDS011;46162;57.568;25.814;2023-05-10T10:25:43;9.68;;;0.90;;
59649;SDS011;46162;57.568;25.814;2023-05-10T10:28:17;9.48;;;0.93;;
59649;SDS011;46162;57.568;25.814;2023-05-10T10:30:57;12.80;;;0.80;;
59649;SDS011;46162;57.568;25.814;2023-05-10T10:33:40;13.48;;;0.98;;
59649;SDS011;46162;57.568;25.814;2023-05-10T10:36:25;10.77;;;1.17;;
59649;SDS011;46162;57.568;25.814;2023-05-10T10:38:55;8.95;;;1.25;;
59649;SDS011;46162;57.568;25.814;2023-05-10T10:41:27;11.90;;;1.10;;
59649;SDS011;46162;57.568;25.814;2023-05-10T10:47:05;9.05;;;0.88;;
59649;SDS011;46162;57.568;25.814;2023-05-10T10:49:41;9.07;;;0.82;;
59649;SDS011;46162;57.568;25.814;2023-05-10T10:52:20;6.70;;;0.93;;
59649;SDS011;46162;57.568;25.814;2023-05-10T10:54:51;9.55;;;0.88;;
59649;SDS011;46162;57.568;25.814;2023-05-10T10:57:20;6.30;;;0.75;;
59649;SDS011;46162;57.568;25.814;2023-05-10T10:59:49;5.82;;;0.52;;
59649;SDS011;46162;57.568;25.814;2023-05-10T11:02:34;8.80;;;0.80;;
59649;SDS011;46162;57.568;25.814;2023-05-10T11:08:11;7.20;;;0.65;;
59649;SDS011;46162;57.568;25.814;2023-05-10T11:13:40;32.03;;;1.77;;
59649;SDS011;46162;57.568;25.814;2023-05-10T11:16:13;12.65;;;0.90;;
59649;SDS011;46162;57.568;25.814;2023-05-10T11:19:00;8.60;;;0.93;;
59649;SDS011;46162;57.568;25.814;2023-05-10T11:21:30;8.55;;;0.70;;
59649;SDS011;46162;57.568;25.814;2023-05-10T11:24:01;8.18;;;1.00;;
59649;SDS011;46162;57.568;25.814;2023-05-10T11:26:33;10.90;;;1.20;;
59649;SDS011;46162;57.568;25.814;2023-05-10T11:29:03;7.20;;;1.00;;
59649;SDS011;46162;57.568;25.814;2023-05-10T11:31:32;11.38;;;0.70;;
59649;SDS011;46162;57.568;25.814;2023-05-10T11:34:01;7.65;;;0.90;;
59649;SDS011;46162;57.568;25.814;2023-05-10T11:36:32;8.93;;;0.93;;
59649;SDS011;46162;57.568;25.814;2023-05-10T11:39:04;8.45;;;0.77;;
59649;SDS011;46162;57.568;25.814;2023-05-10T11:41:33;14.10;;;1.20;;
59649;SDS011;46162;57.568;25.814;2023-05-10T11:44:02;10.27;;;0.80;;
59649;SDS011;46162;57.568;25.814;2023-05-10T11:46:31;18.95;;;1.15;;
59649;SDS011;46162;57.568;25.814;2023-05-10T11:49:00;11.82;;;0.82;;
59649;SDS011;46162;57.568;25.814;2023-05-10T11:51:32;16.13;;;1.02;;
59649;SDS011;46162;57.568;25.814;2023-05-10T11:54:06;5.90;;;0.98;;
59649;SDS011;46162;57.568;25.814;2023-05-10T11:56:36;4.57;;;0.93;;
59649;SDS011;46162;57.568;25.814;2023-05-10T11:59:05;6.30;;;0.73;;
59649;SDS011;46162;57.568;25.814;2023-05-10T12:01:35;7.57;;;0.88;;
59649;SDS011;46162;57.568;25.814;2023-05-10T12:04:04;8.88;;;1.00;;
59649;SDS011;46162;57.568;25.814;2023-05-10T12:06:35;6.10;;;0.75;;
59649;SDS011;46162;57.568;25.814;2023-05-10T12:09:09;13.82;;;0.77;;
59649;SDS011;46162;57.568;25.814;2023-05-10T12:11:39;5.90;;;0.88;;
59649;SDS011;46162;57.568;25.814;2023-05-10T12:14:10;5.03;;;0.63;;
59649;SDS011;46162;57.568;25.814;2023-05-10T12:16:38;17.55;;;1.10;;
59649;SDS011;46162;57.568;25.814;2023-05-10T12:19:08;7.63;;;0.80;;
59649;SDS011;46162;57.568;25.814;2023-05-10T12:21:37;12.02;;;0.98;;
59649;SDS011;46162;57.568;25.814;2023-05-10T12:24:05;7.35;;;0.60;;
59649;SDS011;46162;57.568;25.814;2023-05-10T12:26:37;7.90;;;0.70;;
59649;SDS011;46162;57.568;25.814;2023-05-10T12:29:23;5.35;;;0.80;;
59649;SDS011;46162;57.568;25.814;2023-05-10T12:31:52;7.18;;;0.80;;
59649;SDS011;46162;57.568;25.814;2023-05-10T12:34:25;3.30;;;0.57;;
59649;SDS011;46162;57.568;25.814;2023-05-10T12:36:54;6.97;;;0.88;;
59649;SDS011;46162;57.568;25.814;2023-05-10T12:39:23;8.10;;;0.70;;
59649;SDS011;46162;57.568;25.814;2023-05-10T12:41:53;7.35;;;1.20;;
59649;SDS011;46162;57.568;25.814;2023-05-10T12:44:22;7.32;;;0.93;;
59649;SDS011;46162;57.568;25.814;2023-05-10T12:46:51;5.97;;;0.80;;
59649;SDS011;46162;57.568;25.814;2023-05-10T12:49:19;9.43;;;0.93;;
59649;SDS011;46162;57.568;25.814;2023-05-10T12:51:48;5.20;;;0.88;;
59649;SDS011;46162;57.568;25.814;2023-05-10T12:54:16;6.00;;;0.77;;
59649;SDS011;46162;57.568;25.814;2023-05-10T12:56:45;8.00;;;0.90;;
59649;SDS011;46162;57.568;25.814;2023-05-10T12:59:15;11.80;;;0.77;;
59649;SDS011;46162;57.568;25.814;2023-05-10T13:01:45;16.55;;;1.27;;
59649;SDS011;46162;57.568;25.814;2023-05-10T13:04:14;16.65;;;1.27;;
59649;SDS011;46162;57.568;25.814;2023-05-10T13:06:42;8.70;;;0.60;;
59649;SDS011;46162;57.568;25.814;2023-05-10T13:09:11;10.15;;;0.80;;
59649;SDS011;46162;57.568;25.814;2023-05-10T13:11:40;5.55;;;0.70;;
59649;SDS011;46162;57.568;25.814;2023-05-10T13:14:09;4.35;;;0.80;;
59649;SDS011;46162;57.568;25.814;2023-05-10T13:16:39;11.63;;;1.05;;
59649;SDS011;46162;57.568;25.814;2023-05-10T13:19:07;6.05;;;0.88;;
59649;SDS011;46162;57.568;25.814;2023-05-10T13:21:36;14.45;;;1.23;;
59649;SDS011;46162;57.568;25.814;2023-05-10T13:24:05;9.13;;;0.88;;
59649;SDS011;46162;57.568;25.814;2023-05-10T13:26:33;19.38;;;1.38;;
59649;SDS011;46162;57.568;25.814;2023-05-10T13:29:03;11.25;;;1.10;;
59649;SDS011;46162;57.568;25.814;2023-05-10T13:31:31;8.60;;;0.63;;
59649;SDS011;46162;57.568;25.814;2023-05-10T13:34:01;9.95;;;1.00;;
59649;SDS011;46162;57.568;25.814;2023-05-10T13:36:30;9.98;;;0.90;;
59649;SDS011;46162;57.568;25.814;2023-05-10T13:38:59;5.93;;;0.50;;
59649;SDS011;46162;57.568;25.814;2023-05-10T13:41:30;9.32;;;0.80;;
59649;SDS011;46162;57.568;25.814;2023-05-10T13:43:58;9.98;;;0.77;;
59649;SDS011;46162;57.568;25.814;2023-05-10T13:46:27;9.93;;;0.80;;
59649;SDS011;46162;57.568;25.814;2023-05-10T13:48:55;17.85;;;1.02;;
59649;SDS011;46162;57.568;25.814;2023-05-10T13:51:26;4.60;;;1.05;;
59649;SDS011;46162;57.568;25.814;2023-05-10T13:53:54;9.30;;;0.60;;
59649;SDS011;46162;57.568;25.814;2023-05-10T13:56:23;3.95;;;0.63;;
59649;SDS011;46162;57.568;25.814;2023-05-10T13:58:51;6.35;;;0.60;;
59649;SDS011;46162;57.568;25.814;2023-05-10T14:01:20;8.95;;;0.88;;
59649;SDS011;46162;57.568;25.814;2023-05-10T14:03:48;9.18;;;0.70;;
59649;SDS011;46162;57.568;25.814;2023-05-10T14:06:17;11.77;;;0.93;;
59649;SDS011;46162;57.568;25.814;2023-05-10T14:08:47;7.43;;;1.13;;
59649;SDS011;46162;57.568;25.814;2023-05-10T14:11:15;7.60;;;1.05;;
59649;SDS011;46162;57.568;25.814;2023-05-10T14:13:44;6.53;;;0.90;;
59649;SDS011;46162;57.568;25.814;2023-05-10T14:16:12;6.25;;;1.02;;
59649;SDS011;46162;57.568;25.814;2023-05-10T14:18:41;8.95;;;0.90;;
59649;SDS011;46162;57.568;25.814;2023-05-10T14:21:10;8.70;;;0.85;;
59649;SDS011;46162;57.568;25.814;2023-05-10T14:23:39;6.28;;;0.80;;
59649;SDS011;46162;57.568;25.814;2023-05-10T14:26:09;11.63;;;0.82;;
59649;SDS011;46162;57.568;25.814;2023-05-10T14:28:37;5.32;;;0.93;;
59649;SDS011;46162;57.568;25.814;2023-05-10T14:31:06;10.35;;;1.10;;
59649;SDS011;46162;57.568;25.814;2023-05-10T14:33:34;6.70;;;0.60;;
59649;SDS011;46162;57.568;25.814;2023-05-10T14:36:03;7.10;;;0.73;;
59649;SDS011;46162;57.568;25.814;2023-05-10T14:38:32;11.57;;;0.98;;
59649;SDS011;46162;57.568;25.814;2023-05-10T14:41:00;6.88;;;1.10;;
59649;SDS011;46162;57.568;25.814;2023-05-10T14:43:31;13.52;;;0.82;;
59649;SDS011;46162;57.568;25.814;2023-05-10T14:45:59;8.43;;;0.85;;
59649;SDS011;46162;57.568;25.814;2023-05-10T14:48:28;7.95;;;0.95;;
59649;SDS011;46162;57.568;25.814;2023-05-10T14:50:56;10.73;;;0.60;;
59649;SDS011;46162;57.568;25.814;2023-05-10T14:53:25;9.85;;;0.93;;
59649;SDS011;46162;57.568;25.814;2023-05-10T14:55:54;11.40;;;1.00;;
59649;SDS011;46162;57.568;25.814;2023-05-10T14:58:22;8.65;;;0.80;;
59649;SDS011;46162;57.568;25.814;2023-05-10T15:00:53;13.40;;;0.80;;
59649;SDS011;46162;57.568;25.814;2023-05-10T15:03:22;7.80;;;0.85;;